Harshaw, Wisconsin
Current Conditions -  °F | °C
As of 11:53 AM on Thursday 27 Nov 2014 (Local Time) from KRHI Reporting Station
Overcast Overcast  
Wind Chill: -1°   Ceiling: 2100
Heat Index: 10°   Visibility: 8mi
Dew Point:   Wind: 7mph
Humidity: 67%   Direction: 350°N
Pressure: 30.3"   Gusts: NA
Location:  45.67°N, 89.66°W
Report Text: KRHI 271753Z AUTO 35006KT 8SM OVC021 M12/M17 A3030 RMK AO2 SLP297 I6000 T11221172 11122 21183 50000
Loading
Personal Weather Stations






























Interactive Weather Map New forecast layout! Learn more

10-Day Weather Forecast

Advertisements
Track Severe Weather on mobile